sensor_id;sensor_type;location;lat;lon;timestamp;temperature;humidity
77985;DHT22;67177;47.240;-1.546;2023-11-19T00:01:31;15.20;93.10
77985;DHT22;67177;47.240;-1.546;2023-11-19T00:03:58;15.30;93.10
77985;DHT22;67177;47.240;-1.546;2023-11-19T00:06:23;15.20;93.10
77985;DHT22;67177;47.240;-1.546;2023-11-19T00:08:51;15.20;93.10
77985;DHT22;67177;47.240;-1.546;2023-11-19T00:11:17;15.20;93.10
77985;DHT22;67177;47.240;-1.546;2023-11-19T00:13:42;15.20;93.10
77985;DHT22;67177;47.240;-1.546;2023-11-19T00:16:08;15.20;93.10
77985;DHT22;67177;47.240;-1.546;2023-11-19T00:18:35;15.20;93.10
77985;DHT22;67177;47.240;-1.546;2023-11-19T00:21:02;15.20;93.10
77985;DHT22;67177;47.240;-1.546;2023-11-19T00:23:28;15.20;93.20
77985;DHT22;67177;47.240;-1.546;2023-11-19T00:25:53;15.20;93.20
77985;DHT22;67177;47.240;-1.546;2023-11-19T00:28:19;15.20;93.30
77985;DHT22;67177;47.240;-1.546;2023-11-19T00:30:45;15.20;93.30
77985;DHT22;67177;47.240;-1.546;2023-11-19T00:33:10;15.20;93.30
77985;DHT22;67177;47.240;-1.546;2023-11-19T00:35:36;15.20;93.40
77985;DHT22;67177;47.240;-1.546;2023-11-19T00:38:02;15.20;93.40
77985;DHT22;67177;47.240;-1.546;2023-11-19T00:40:29;15.20;93.40
77985;DHT22;67177;47.240;-1.546;2023-11-19T00:42:55;15.20;93.40
77985;DHT22;67177;47.240;-1.546;2023-11-19T00:45:20;15.10;93.40
77985;DHT22;67177;47.240;-1.546;2023-11-19T00:47:46;15.10;93.40
77985;DHT22;67177;47.240;-1.546;2023-11-19T00:50:12;15.10;93.40
77985;DHT22;67177;47.240;-1.546;2023-11-19T00:52:38;15.10;93.40
77985;DHT22;67177;47.240;-1.546;2023-11-19T00:55:05;15.10;93.50
77985;DHT22;67177;47.240;-1.546;2023-11-19T00:57:31;15.10;93.50
77985;DHT22;67177;47.240;-1.546;2023-11-19T00:59:58;15.10;93.60
77985;DHT22;67177;47.240;-1.546;2023-11-19T01:02:24;15.10;93.60
77985;DHT22;67177;47.240;-1.546;2023-11-19T01:04:50;15.10;93.70
77985;DHT22;67177;47.240;-1.546;2023-11-19T01:07:15;15.10;93.60
77985;DHT22;67177;47.240;-1.546;2023-11-19T01:09:42;15.10;93.60
77985;DHT22;67177;47.240;-1.546;2023-11-19T01:12:08;15.10;93.60
77985;DHT22;67177;47.240;-1.546;2023-11-19T01:14:35;15.10;93.50
77985;DHT22;67177;47.240;-1.546;2023-11-19T01:17:01;15.10;93.40
77985;DHT22;67177;47.240;-1.546;2023-11-19T01:19:27;15.10;93.50
77985;DHT22;67177;47.240;-1.546;2023-11-19T01:21:54;15.10;93.50
77985;DHT22;67177;47.240;-1.546;2023-11-19T01:24:20;15.10;93.40
77985;DHT22;67177;47.240;-1.546;2023-11-19T01:26:45;15.00;93.40
77985;DHT22;67177;47.240;-1.546;2023-11-19T01:29:12;15.00;93.40
77985;DHT22;67177;47.240;-1.546;2023-11-19T01:31:42;15.00;93.40
77985;DHT22;67177;47.240;-1.546;2023-11-19T01:34:08;15.00;93.40
77985;DHT22;67177;47.240;-1.546;2023-11-19T01:36:34;15.00;93.50
77985;DHT22;67177;47.240;-1.546;2023-11-19T01:39:00;15.00;93.40
77985;DHT22;67177;47.240;-1.546;2023-11-19T01:41:26;15.00;93.30
77985;DHT22;67177;47.240;-1.546;2023-11-19T01:43:51;14.90;93.30
77985;DHT22;67177;47.240;-1.546;2023-11-19T01:46:17;14.90;93.20
77985;DHT22;67177;47.240;-1.546;2023-11-19T01:48:45;14.90;93.20
77985;DHT22;67177;47.240;-1.546;2023-11-19T01:51:12;14.80;93.30
77985;DHT22;67177;47.240;-1.546;2023-11-19T01:53:42;14.80;93.30
77985;DHT22;67177;47.240;-1.546;2023-11-19T01:56:09;14.80;93.20
77985;DHT22;67177;47.240;-1.546;2023-11-19T01:58:37;14.80;93.20
77985;DHT22;67177;47.240;-1.546;2023-11-19T02:01:07;14.80;93.30
77985;DHT22;67177;47.240;-1.546;2023-11-19T02:03:33;14.80;93.30
77985;DHT22;67177;47.240;-1.546;2023-11-19T02:06:03;14.70;93.30
77985;DHT22;67177;47.240;-1.546;2023-11-19T02:08:29;14.80;93.30
77985;DHT22;67177;47.240;-1.546;2023-11-19T02:10:55;14.80;93.30
77985;DHT22;67177;47.240;-1.546;2023-11-19T02:13:26;14.80;93.40
77985;DHT22;67177;47.240;-1.546;2023-11-19T02:15:52;14.80;93.40
77985;DHT22;67177;47.240;-1.546;2023-11-19T02:18:23;14.80;93.40
77985;DHT22;67177;47.240;-1.546;2023-11-19T02:20:49;14.80;93.40
77985;DHT22;67177;47.240;-1.546;2023-11-19T02:23:16;14.80;93.20
77985;DHT22;67177;47.240;-1.546;2023-11-19T02:25:43;14.80;93.20
77985;DHT22;67177;47.240;-1.546;2023-11-19T02:28:12;14.80;93.20
77985;DHT22;67177;47.240;-1.546;2023-11-19T02:30:38;14.80;93.00
77985;DHT22;67177;47.240;-1.546;2023-11-19T02:33:04;14.70;93.00
77985;DHT22;67177;47.240;-1.546;2023-11-19T02:35:34;14.70;92.90
77985;DHT22;67177;47.240;-1.546;2023-11-19T02:38:00;14.70;92.90
77985;DHT22;67177;47.240;-1.546;2023-11-19T02:40:32;14.60;92.90
77985;DHT22;67177;47.240;-1.546;2023-11-19T02:42:57;14.60;92.80
77985;DHT22;67177;47.240;-1.546;2023-11-19T02:45:24;14.60;92.70
77985;DHT22;67177;47.240;-1.546;2023-11-19T02:47:51;14.60;92.80
77985;DHT22;67177;47.240;-1.546;2023-11-19T02:50:18;14.60;92.70
77985;DHT22;67177;47.240;-1.546;2023-11-19T02:52:51;14.60;92.90
77985;DHT22;67177;47.240;-1.546;2023-11-19T02:55:17;14.60;92.80
77985;DHT22;67177;47.240;-1.546;2023-11-19T02:57:43;14.60;92.90
77985;DHT22;67177;47.240;-1.546;2023-11-19T03:00:21;14.50;92.70
77985;DHT22;67177;47.240;-1.546;2023-11-19T03:02:56;14.50;92.70
77985;DHT22;67177;47.240;-1.546;2023-11-19T03:05:30;14.50;92.80
77985;DHT22;67177;47.240;-1.546;2023-11-19T03:07:56;14.50;92.80
77985;DHT22;67177;47.240;-1.546;2023-11-19T03:10:22;14.50;92.70
77985;DHT22;67177;47.240;-1.546;2023-11-19T03:12:49;14.50;92.70
77985;DHT22;67177;47.240;-1.546;2023-11-19T03:15:15;14.50;92.90
77985;DHT22;67177;47.240;-1.546;2023-11-19T03:17:42;14.50;93.00
77985;DHT22;67177;47.240;-1.546;2023-11-19T03:20:10;14.60;93.10
77985;DHT22;67177;47.240;-1.546;2023-11-19T03:22:39;14.60;93.10
77985;DHT22;67177;47.240;-1.546;2023-11-19T03:25:07;14.60;93.00
77985;DHT22;67177;47.240;-1.546;2023-11-19T03:27:34;14.60;93.10
77985;DHT22;67177;47.240;-1.546;2023-11-19T03:30:02;14.60;93.00
77985;DHT22;67177;47.240;-1.546;2023-11-19T03:32:30;14.60;93.00
77985;DHT22;67177;47.240;-1.546;2023-11-19T03:34:56;14.60;93.10
77985;DHT22;67177;47.240;-1.546;2023-11-19T03:37:22;14.60;93.00
77985;DHT22;67177;47.240;-1.546;2023-11-19T03:39:47;14.60;93.00
77985;DHT22;67177;47.240;-1.546;2023-11-19T03:42:13;14.60;93.00
77985;DHT22;67177;47.240;-1.546;2023-11-19T03:44:39;14.60;92.90
77985;DHT22;67177;47.240;-1.546;2023-11-19T03:47:04;14.60;92.80
77985;DHT22;67177;47.240;-1.546;2023-11-19T03:49:30;14.50;92.70
77985;DHT22;67177;47.240;-1.546;2023-11-19T03:51:56;14.50;92.80
77985;DHT22;67177;47.240;-1.546;2023-11-19T03:54:21;14.50;92.90
77985;DHT22;67177;47.240;-1.546;2023-11-19T03:56:48;14.50;92.80
77985;DHT22;67177;47.240;-1.546;2023-11-19T03:59:14;14.50;92.80
77985;DHT22;67177;47.240;-1.546;2023-11-19T04:01:41;14.40;92.70
77985;DHT22;67177;47.240;-1.546;2023-11-19T04:04:06;14.40;92.70
77985;DHT22;67177;47.240;-1.546;2023-11-19T04:06:32;14.40;92.80
77985;DHT22;67177;47.240;-1.546;2023-11-19T04:08:58;14.50;92.80
77985;DHT22;67177;47.240;-1.546;2023-11-19T04:11:23;14.50;92.90
77985;DHT22;67177;47.240;-1.546;2023-11-19T04:13:49;14.50;92.90
77985;DHT22;67177;47.240;-1.546;2023-11-19T04:16:14;14.50;93.00
77985;DHT22;67177;47.240;-1.546;2023-11-19T04:18:40;14.50;93.00
77985;DHT22;67177;47.240;-1.546;2023-11-19T04:21:07;14.50;92.90
77985;DHT22;67177;47.240;-1.546;2023-11-19T04:23:33;14.50;92.90
77985;DHT22;67177;47.240;-1.546;2023-11-19T04:26:02;14.50;92.80
77985;DHT22;67177;47.240;-1.546;2023-11-19T04:28:29;14.50;92.70
77985;DHT22;67177;47.240;-1.546;2023-11-19T04:30:55;14.50;92.60
77985;DHT22;67177;47.240;-1.546;2023-11-19T04:33:20;14.40;92.50
77985;DHT22;67177;47.240;-1.546;2023-11-19T04:35:46;14.40;92.50
77985;DHT22;67177;47.240;-1.546;2023-11-19T04:38:12;14.40;92.40
77985;DHT22;67177;47.240;-1.546;2023-11-19T04:40:37;14.30;92.40
77985;DHT22;67177;47.240;-1.546;2023-11-19T04:43:03;14.30;92.50
77985;DHT22;67177;47.240;-1.546;2023-11-19T04:45:28;14.30;92.40
77985;DHT22;67177;47.240;-1.546;2023-11-19T04:47:54;14.30;92.50
77985;DHT22;67177;47.240;-1.546;2023-11-19T04:50:20;14.30;92.50
77985;DHT22;67177;47.240;-1.546;2023-11-19T04:52:45;14.30;92.50
77985;DHT22;67177;47.240;-1.546;2023-11-19T04:55:12;14.30;92.50
77985;DHT22;67177;47.240;-1.546;2023-11-19T04:57:40;14.30;92.40
77985;DHT22;67177;47.240;-1.546;2023-11-19T05:00:05;14.30;92.40
77985;DHT22;67177;47.240;-1.546;2023-11-19T05:02:34;14.30;92.40
77985;DHT22;67177;47.240;-1.546;2023-11-19T05:05:00;14.30;92.40
77985;DHT22;67177;47.240;-1.546;2023-11-19T05:07:25;14.30;92.40
77985;DHT22;67177;47.240;-1.546;2023-11-19T05:09:52;14.30;92.40
77985;DHT22;67177;47.240;-1.546;2023-11-19T05:12:17;14.30;92.30
77985;DHT22;67177;47.240;-1.546;2023-11-19T05:14:43;14.30;92.20
77985;DHT22;67177;47.240;-1.546;2023-11-19T05:17:15;14.20;92.10
77985;DHT22;67177;47.240;-1.546;2023-11-19T05:19:40;14.20;92.10
77985;DHT22;67177;47.240;-1.546;2023-11-19T05:22:06;14.20;92.00
77985;DHT22;67177;47.240;-1.546;2023-11-19T05:24:32;14.10;92.00
77985;DHT22;67177;47.240;-1.546;2023-11-19T05:26:57;14.10;92.00
77985;DHT22;67177;47.240;-1.546;2023-11-19T05:29:23;14.10;92.00
77985;DHT22;67177;47.240;-1.546;2023-11-19T05:31:49;14.10;92.00
77985;DHT22;67177;47.240;-1.546;2023-11-19T05:34:15;14.00;91.90
77985;DHT22;67177;47.240;-1.546;2023-11-19T05:36:41;14.00;91.90
77985;DHT22;67177;47.240;-1.546;2023-11-19T05:39:06;14.00;91.90
77985;DHT22;67177;47.240;-1.546;2023-11-19T05:41:32;13.90;91.80
77985;DHT22;67177;47.240;-1.546;2023-11-19T05:43:57;13.90;91.80
77985;DHT22;67177;47.240;-1.546;2023-11-19T05:46:23;13.90;91.70
77985;DHT22;67177;47.240;-1.546;2023-11-19T05:48:51;13.90;91.70
77985;DHT22;67177;47.240;-1.546;2023-11-19T05:51:16;13.90;91.80
77985;DHT22;67177;47.240;-1.546;2023-11-19T05:53:42;13.90;91.90
77985;DHT22;67177;47.240;-1.546;2023-11-19T05:56:09;13.90;91.80
77985;DHT22;67177;47.240;-1.546;2023-11-19T05:58:35;13.90;91.90
77985;DHT22;67177;47.240;-1.546;2023-11-19T06:01:01;13.90;91.90
77985;DHT22;67177;47.240;-1.546;2023-11-19T06:03:28;13.90;91.90
77985;DHT22;67177;47.240;-1.546;2023-11-19T06:05:54;13.90;91.90
77985;DHT22;67177;47.240;-1.546;2023-11-19T06:08:22;13.90;91.80
77985;DHT22;67177;47.240;-1.546;2023-11-19T06:10:47;13.80;91.90
77985;DHT22;67177;47.240;-1.546;2023-11-19T06:13:16;13.80;91.80
77985;DHT22;67177;47.240;-1.546;2023-11-19T06:15:44;13.80;91.90
77985;DHT22;67177;47.240;-1.546;2023-11-19T06:18:10;13.80;91.80
77985;DHT22;67177;47.240;-1.546;2023-11-19T06:20:38;13.80;91.80
77985;DHT22;67177;47.240;-1.546;2023-11-19T06:23:03;13.80;91.80
77985;DHT22;67177;47.240;-1.546;2023-11-19T06:25:29;13.80;91.70
77985;DHT22;67177;47.240;-1.546;2023-11-19T06:27:55;13.80;91.70
77985;DHT22;67177;47.240;-1.546;2023-11-19T06:30:20;13.80;91.70
77985;DHT22;67177;47.240;-1.546;2023-11-19T06:32:46;13.70;91.60
77985;DHT22;67177;47.240;-1.546;2023-11-19T06:35:15;13.70;91.50
77985;DHT22;67177;47.240;-1.546;2023-11-19T06:37:42;13.70;91.60
77985;DHT22;67177;47.240;-1.546;2023-11-19T06:40:08;13.70;91.60
77985;DHT22;67177;47.240;-1.546;2023-11-19T06:42:35;13.70;91.60
77985;DHT22;67177;47.240;-1.546;2023-11-19T06:45:01;13.70;91.60
77985;DHT22;67177;47.240;-1.546;2023-11-19T06:47:27;13.70;91.60
77985;DHT22;67177;47.240;-1.546;2023-11-19T06:49:53;13.70;91.50
77985;DHT22;67177;47.240;-1.546;2023-11-19T06:52:19;13.70;91.50
77985;DHT22;67177;47.240;-1.546;2023-11-19T06:54:45;13.60;91.50
77985;DHT22;67177;47.240;-1.546;2023-11-19T06:57:13;13.60;91.50
77985;DHT22;67177;47.240;-1.546;2023-11-19T06:59:39;13.60;91.50
77985;DHT22;67177;47.240;-1.546;2023-11-19T07:02:06;13.60;91.60
77985;DHT22;67177;47.240;-1.546;2023-11-19T07:04:32;13.60;91.60
77985;DHT22;67177;47.240;-1.546;2023-11-19T07:06:58;13.60;91.50
77985;DHT22;67177;47.240;-1.546;2023-11-19T07:09:25;13.60;91.50
77985;DHT22;67177;47.240;-1.546;2023-11-19T07:11:51;13.60;91.50
77985;DHT22;67177;47.240;-1.546;2023-11-19T07:14:18;13.60;91.50
77985;DHT22;67177;47.240;-1.546;2023-11-19T07:16:44;13.50;91.40
77985;DHT22;67177;47.240;-1.546;2023-11-19T07:19:09;13.50;91.40
77985;DHT22;67177;47.240;-1.546;2023-11-19T07:21:35;13.50;91.30
77985;DHT22;67177;47.240;-1.546;2023-11-19T07:24:05;13.50;91.30
77985;DHT22;67177;47.240;-1.546;2023-11-19T07:26:31;13.50;91.30
77985;DHT22;67177;47.240;-1.546;2023-11-19T07:28:57;13.50;91.30
77985;DHT22;67177;47.240;-1.546;2023-11-19T07:31:23;13.50;91.20
77985;DHT22;67177;47.240;-1.546;2023-11-19T07:33:49;13.50;91.20
77985;DHT22;67177;47.240;-1.546;2023-11-19T07:36:15;13.50;91.20
77985;DHT22;67177;47.240;-1.546;2023-11-19T07:38:41;13.50;91.10
77985;DHT22;67177;47.240;-1.546;2023-11-19T07:41:08;13.50;91.10
77985;DHT22;67177;47.240;-1.546;2023-11-19T07:43:39;13.50;91.10
77985;DHT22;67177;47.240;-1.546;2023-11-19T07:46:10;13.50;91.10
77985;DHT22;67177;47.240;-1.546;2023-11-19T07:48:38;13.50;91.00
77985;DHT22;67177;47.240;-1.546;2023-11-19T07:51:04;13.50;91.10
77985;DHT22;67177;47.240;-1.546;2023-11-19T07:53:30;13.50;91.00
77985;DHT22;67177;47.240;-1.546;2023-11-19T07:55:55;13.60;91.00
77985;DHT22;67177;47.240;-1.546;2023-11-19T07:58:21;13.60;90.90
77985;DHT22;67177;47.240;-1.546;2023-11-19T08:00:46;13.60;90.90
77985;DHT22;67177;47.240;-1.546;2023-11-19T08:03:12;13.60;91.00
77985;DHT22;67177;47.240;-1.546;2023-11-19T08:05:38;13.70;90.80
77985;DHT22;67177;47.240;-1.546;2023-11-19T08:08:03;13.70;90.90
77985;DHT22;67177;47.240;-1.546;2023-11-19T08:10:29;13.70;91.00
77985;DHT22;67177;47.240;-1.546;2023-11-19T08:12:55;13.80;90.90
77985;DHT22;67177;47.240;-1.546;2023-11-19T08:15:20;13.80;90.80
77985;DHT22;67177;47.240;-1.546;2023-11-19T08:17:46;13.90;90.80
77985;DHT22;67177;47.240;-1.546;2023-11-19T08:20:12;13.90;90.80
77985;DHT22;67177;47.240;-1.546;2023-11-19T08:22:38;13.90;90.80
77985;DHT22;67177;47.240;-1.546;2023-11-19T08:25:05;14.00;90.80
77985;DHT22;67177;47.240;-1.546;2023-11-19T08:27:31;14.10;90.70
77985;DHT22;67177;47.240;-1.546;2023-11-19T08:29:57;14.10;90.70
77985;DHT22;67177;47.240;-1.546;2023-11-19T08:32:26;14.10;90.70
77985;DHT22;67177;47.240;-1.546;2023-11-19T08:34:52;14.10;90.60
77985;DHT22;67177;47.240;-1.546;2023-11-19T08:37:18;14.10;90.60
77985;DHT22;67177;47.240;-1.546;2023-11-19T08:39:50;14.10;90.50
77985;DHT22;67177;47.240;-1.546;2023-11-19T08:42:18;14.20;90.40
77985;DHT22;67177;47.240;-1.546;2023-11-19T08:44:49;14.20;90.30
77985;DHT22;67177;47.240;-1.546;2023-11-19T08:47:16;14.30;90.20
77985;DHT22;67177;47.240;-1.546;2023-11-19T08:49:43;14.40;90.10
77985;DHT22;67177;47.240;-1.546;2023-11-19T08:52:12;14.40;90.00
77985;DHT22;67177;47.240;-1.546;2023-11-19T08:54:38;14.40;90.00
77985;DHT22;67177;47.240;-1.546;2023-11-19T08:57:07;14.40;89.90
77985;DHT22;67177;47.240;-1.546;2023-11-19T08:59:34;14.40;89.80
77985;DHT22;67177;47.240;-1.546;2023-11-19T09:01:59;14.40;89.80
77985;DHT22;67177;47.240;-1.546;2023-11-19T09:04:25;14.40;89.80
77985;DHT22;67177;47.240;-1.546;2023-11-19T09:06:51;14.40;89.80
77985;DHT22;67177;47.240;-1.546;2023-11-19T09:09:17;14.40;89.70
77985;DHT22;67177;47.240;-1.546;2023-11-19T09:11:42;14.50;89.70
77985;DHT22;67177;47.240;-1.546;2023-11-19T09:14:08;14.50;89.50
77985;DHT22;67177;47.240;-1.546;2023-11-19T09:16:34;14.50;89.50
77985;DHT22;67177;47.240;-1.546;2023-11-19T09:19:00;14.50;89.40
77985;DHT22;67177;47.240;-1.546;2023-11-19T09:21:27;14.50;89.20
77985;DHT22;67177;47.240;-1.546;2023-11-19T09:23:55;14.50;89.20
77985;DHT22;67177;47.240;-1.546;2023-11-19T09:26:20;14.50;89.20
77985;DHT22;67177;47.240;-1.546;2023-11-19T09:28:46;14.60;88.90
77985;DHT22;67177;47.240;-1.546;2023-11-19T09:31:16;14.60;89.00
77985;DHT22;67177;47.240;-1.546;2023-11-19T09:33:42;14.60;89.00
77985;DHT22;67177;47.240;-1.546;2023-11-19T09:36:08;14.60;89.10
77985;DHT22;67177;47.240;-1.546;2023-11-19T09:38:34;14.70;89.00
77985;DHT22;67177;47.240;-1.546;2023-11-19T09:41:07;14.70;89.00
77985;DHT22;67177;47.240;-1.546;2023-11-19T09:43:39;14.70;88.90
77985;DHT22;67177;47.240;-1.546;2023-11-19T09:46:13;14.60;88.90
77985;DHT22;67177;47.240;-1.546;2023-11-19T09:48:40;14.60;88.90
77985;DHT22;67177;47.240;-1.546;2023-11-19T09:51:08;14.60;88.80
77985;DHT22;67177;47.240;-1.546;2023-11-19T09:53:35;14.60;88.70
77985;DHT22;67177;47.240;-1.546;2023-11-19T09:56:02;14.60;88.60
77985;DHT22;67177;47.240;-1.546;2023-11-19T09:58:29;14.70;88.50
77985;DHT22;67177;47.240;-1.546;2023-11-19T10:00:56;14.60;88.50
77985;DHT22;67177;47.240;-1.546;2023-11-19T10:03:25;14.70;88.60
77985;DHT22;67177;47.240;-1.546;2023-11-19T10:05:53;14.70;88.50
77985;DHT22;67177;47.240;-1.546;2023-11-19T10:08:20;14.70;88.60
77985;DHT22;67177;47.240;-1.546;2023-11-19T10:10:45;14.70;88.50
77985;DHT22;67177;47.240;-1.546;2023-11-19T10:13:11;14.70;88.30
77985;DHT22;67177;47.240;-1.546;2023-11-19T10:15:37;14.80;88.20
77985;DHT22;67177;47.240;-1.546;2023-11-19T10:18:03;14.90;88.00
77985;DHT22;67177;47.240;-1.546;2023-11-19T10:20:41;15.00;88.00
77985;DHT22;67177;47.240;-1.546;2023-11-19T10:23:07;15.10;88.00
77985;DHT22;67177;47.240;-1.546;2023-11-19T10:25:33;15.20;87.90
77985;DHT22;67177;47.240;-1.546;2023-11-19T10:27:59;15.30;87.70
77985;DHT22;67177;47.240;-1.546;2023-11-19T10:30:30;15.40;87.60
77985;DHT22;67177;47.240;-1.546;2023-11-19T10:35:50;15.70;87.30
77985;DHT22;67177;47.240;-1.546;2023-11-19T10:38:20;15.80;87.00
77985;DHT22;67177;47.240;-1.546;2023-11-19T10:40:48;15.90;86.60
77985;DHT22;67177;47.240;-1.546;2023-11-19T10:43:14;16.10;86.20
77985;DHT22;67177;47.240;-1.546;2023-11-19T10:45:40;16.10;85.50
77985;DHT22;67177;47.240;-1.546;2023-11-19T10:48:06;16.10;85.30
77985;DHT22;67177;47.240;-1.546;2023-11-19T10:50:39;16.20;85.30
77985;DHT22;67177;47.240;-1.546;2023-11-19T10:53:07;16.30;85.50
77985;DHT22;67177;47.240;-1.546;2023-11-19T10:55:37;16.20;85.40
77985;DHT22;67177;47.240;-1.546;2023-11-19T10:58:07;16.10;85.00
77985;DHT22;67177;47.240;-1.546;2023-11-19T11:03:18;16.10;84.40
77985;DHT22;67177;47.240;-1.546;2023-11-19T11:05:47;16.10;84.20
77985;DHT22;67177;47.240;-1.546;2023-11-19T11:08:13;16.20;84.00
77985;DHT22;67177;47.240;-1.546;2023-11-19T11:10:44;16.10;83.80
77985;DHT22;67177;47.240;-1.546;2023-11-19T11:13:11;16.00;83.80
77985;DHT22;67177;47.240;-1.546;2023-11-19T11:15:39;15.90;83.90
77985;DHT22;67177;47.240;-1.546;2023-11-19T11:18:08;15.90;83.60
77985;DHT22;67177;47.240;-1.546;2023-11-19T11:20:35;15.90;83.20
77985;DHT22;67177;47.240;-1.546;2023-11-19T11:23:11;15.70;82.80
77985;DHT22;67177;47.240;-1.546;2023-11-19T11:28:37;15.50;83.00
77985;DHT22;67177;47.240;-1.546;2023-11-19T11:36:24;15.30;83.10
77985;DHT22;67177;47.240;-1.546;2023-11-19T11:38:51;15.20;82.80
77985;DHT22;67177;47.240;-1.546;2023-11-19T11:41:22;15.20;82.80
77985;DHT22;67177;47.240;-1.546;2023-11-19T11:43:50;15.20;82.70
77985;DHT22;67177;47.240;-1.546;2023-11-19T11:49:06;15.20;82.80
77985;DHT22;67177;47.240;-1.546;2023-11-19T11:57:02;15.30;82.10
77985;DHT22;67177;47.240;-1.546;2023-11-19T12:02:09;15.30;81.30
77985;DHT22;67177;47.240;-1.546;2023-11-19T12:04:35;15.30;81.20
77985;DHT22;67177;47.240;-1.546;2023-11-19T12:07:16;15.30;81.20
77985;DHT22;67177;47.240;-1.546;2023-11-19T12:09:45;15.20;81.10
77985;DHT22;67177;47.240;-1.546;2023-11-19T12:12:18;15.20;81.00
77985;DHT22;67177;47.240;-1.546;2023-11-19T12:20:00;15.00;80.90
77985;DHT22;67177;47.240;-1.546;2023-11-19T12:22:25;14.90;81.10
77985;DHT22;67177;47.240;-1.546;2023-11-19T12:24:55;14.90;80.40
77985;DHT22;67177;47.240;-1.546;2023-11-19T12:27:21;14.90;80.10
77985;DHT22;67177;47.240;-1.546;2023-11-19T12:29:48;14.90;79.80
77985;DHT22;67177;47.240;-1.546;2023-11-19T12:32:14;14.90;79.90
77985;DHT22;67177;47.240;-1.546;2023-11-19T12:34:39;14.90;79.70
77985;DHT22;67177;47.240;-1.546;2023-11-19T12:37:05;15.00;79.80
77985;DHT22;67177;47.240;-1.546;2023-11-19T12:39:31;15.00;79.80
77985;DHT22;67177;47.240;-1.546;2023-11-19T12:41:57;15.00;79.20
77985;DHT22;67177;47.240;-1.546;2023-11-19T12:44:27;15.10;78.70
77985;DHT22;67177;47.240;-1.546;2023-11-19T12:47:06;15.20;78.70
77985;DHT22;67177;47.240;-1.546;2023-11-19T12:49:33;15.20;78.60
77985;DHT22;67177;47.240;-1.546;2023-11-19T12:51:59;15.10;77.80
77985;DHT22;67177;47.240;-1.546;2023-11-19T12:54:51;15.10;77.60
77985;DHT22;67177;47.240;-1.546;2023-11-19T12:57:17;15.10;78.20
77985;DHT22;67177;47.240;-1.546;2023-11-19T12:59:57;15.10;78.30
77985;DHT22;67177;47.240;-1.546;2023-11-19T13:02:23;15.00;78.70
77985;DHT22;67177;47.240;-1.546;2023-11-19T13:07:49;14.90;78.50
77985;DHT22;67177;47.240;-1.546;2023-11-19T13:10:15;14.90;78.30
77985;DHT22;67177;47.240;-1.546;2023-11-19T13:12:41;14.90;78.30
77985;DHT22;67177;47.240;-1.546;2023-11-19T13:15:21;15.00;78.10
77985;DHT22;67177;47.240;-1.546;2023-11-19T13:17:47;15.10;77.90
77985;DHT22;67177;47.240;-1.546;2023-11-19T13:20:13;15.30;78.10
77985;DHT22;67177;47.240;-1.546;2023-11-19T13:22:57;15.50;77.90
77985;DHT22;67177;47.240;-1.546;2023-11-19T13:25:22;15.70;78.10
77985;DHT22;67177;47.240;-1.546;2023-11-19T13:27:48;15.80;77.90
77985;DHT22;67177;47.240;-1.546;2023-11-19T13:30:14;15.90;78.30
77985;DHT22;67177;47.240;-1.546;2023-11-19T13:32:40;15.90;78.20
77985;DHT22;67177;47.240;-1.546;2023-11-19T13:35:06;15.90;78.20
77985;DHT22;67177;47.240;-1.546;2023-11-19T13:37:34;15.80;77.90
77985;DHT22;67177;47.240;-1.546;2023-11-19T13:40:00;15.80;77.70
77985;DHT22;67177;47.240;-1.546;2023-11-19T13:42:26;15.70;77.60
77985;DHT22;67177;47.240;-1.546;2023-11-19T13:44:52;15.50;77.10
77985;DHT22;67177;47.240;-1.546;2023-11-19T13:47:18;15.40;76.90
77985;DHT22;67177;47.240;-1.546;2023-11-19T13:49:45;15.30;77.00
77985;DHT22;67177;47.240;-1.546;2023-11-19T13:52:10;15.20;77.10
77985;DHT22;67177;47.240;-1.546;2023-11-19T13:54:37;15.10;77.10
77985;DHT22;67177;47.240;-1.546;2023-11-19T13:57:03;15.00;76.80
77985;DHT22;67177;47.240;-1.546;2023-11-19T13:59:32;14.90;76.80
77985;DHT22;67177;47.240;-1.546;2023-11-19T14:01:58;14.90;76.90
77985;DHT22;67177;47.240;-1.546;2023-11-19T14:04:24;14.80;77.20
77985;DHT22;67177;47.240;-1.546;2023-11-19T14:06:50;14.80;77.20
77985;DHT22;67177;47.240;-1.546;2023-11-19T14:09:16;14.70;77.30
77985;DHT22;67177;47.240;-1.546;2023-11-19T14:11:43;14.70;76.90
77985;DHT22;67177;47.240;-1.546;2023-11-19T14:14:09;14.70;76.90
77985;DHT22;67177;47.240;-1.546;2023-11-19T14:16:34;14.70;76.70
77985;DHT22;67177;47.240;-1.546;2023-11-19T14:19:00;14.70;76.30
77985;DHT22;67177;47.240;-1.546;2023-11-19T14:21:26;14.70;76.10
77985;DHT22;67177;47.240;-1.546;2023-11-19T14:23:52;14.70;76.60
77985;DHT22;67177;47.240;-1.546;2023-11-19T14:26:18;14.70;76.30
77985;DHT22;67177;47.240;-1.546;2023-11-19T14:28:44;14.70;76.50
77985;DHT22;67177;47.240;-1.546;2023-11-19T14:31:09;14.70;76.40
77985;DHT22;67177;47.240;-1.546;2023-11-19T14:33:35;14.70;76.60
77985;DHT22;67177;47.240;-1.546;2023-11-19T14:36:03;14.70;76.40
77985;DHT22;67177;47.240;-1.546;2023-11-19T14:38:29;14.80;76.10
77985;DHT22;67177;47.240;-1.546;2023-11-19T14:40:55;14.90;76.30
77985;DHT22;67177;47.240;-1.546;2023-11-19T14:43:21;15.00;76.40
77985;DHT22;67177;47.240;-1.546;2023-11-19T14:45:46;15.00;76.40
77985;DHT22;67177;47.240;-1.546;2023-11-19T14:48:12;15.00;76.40
77985;DHT22;67177;47.240;-1.546;2023-11-19T14:50:38;15.00;76.40
77985;DHT22;67177;47.240;-1.546;2023-11-19T14:53:03;15.10;76.50
77985;DHT22;67177;47.240;-1.546;2023-11-19T14:55:29;15.10;76.70
77985;DHT22;67177;47.240;-1.546;2023-11-19T14:57:54;15.10;76.40
77985;DHT22;67177;47.240;-1.546;2023-11-19T15:00:22;15.00;76.40
77985;DHT22;67177;47.240;-1.546;2023-11-19T15:02:48;15.00;76.30
77985;DHT22;67177;47.240;-1.546;2023-11-19T15:05:13;14.90;76.20
77985;DHT22;67177;47.240;-1.546;2023-11-19T15:07:40;14.80;76.30
77985;DHT22;67177;47.240;-1.546;2023-11-19T15:10:06;14.70;76.50
77985;DHT22;67177;47.240;-1.546;2023-11-19T15:12:39;14.70;76.10
77985;DHT22;67177;47.240;-1.546;2023-11-19T15:15:07;14.70;75.90
77985;DHT22;67177;47.240;-1.546;2023-11-19T15:17:33;14.70;75.80
77985;DHT22;67177;47.240;-1.546;2023-11-19T15:19:59;14.70;76.00
77985;DHT22;67177;47.240;-1.546;2023-11-19T15:22:24;14.70;75.80
77985;DHT22;67177;47.240;-1.546;2023-11-19T15:24:50;14.70;75.50
77985;DHT22;67177;47.240;-1.546;2023-11-19T15:27:15;14.60;75.40
77985;DHT22;67177;47.240;-1.546;2023-11-19T15:29:42;14.60;75.20
77985;DHT22;67177;47.240;-1.546;2023-11-19T15:32:07;14.50;75.10
77985;DHT22;67177;47.240;-1.546;2023-11-19T15:34:33;14.50;74.60
77985;DHT22;67177;47.240;-1.546;2023-11-19T15:37:00;14.50;74.40
77985;DHT22;67177;47.240;-1.546;2023-11-19T15:39:26;14.40;74.50
77985;DHT22;67177;47.240;-1.546;2023-11-19T15:41:53;14.40;74.70
77985;DHT22;67177;47.240;-1.546;2023-11-19T15:44:18;14.40;74.70
77985;DHT22;67177;47.240;-1.546;2023-11-19T15:46:44;14.40;74.80